createdAt,value
2023-04-12T00:15:13.573Z,19.1
2023-04-12T00:35:13.558Z,19.1
2023-04-12T00:55:13.533Z,19.0
2023-04-12T01:15:13.532Z,19.0
2023-04-12T01:35:13.470Z,19.0
2023-04-12T01:55:13.529Z,18.9
2023-04-12T02:15:13.567Z,18.9
2023-04-12T02:35:13.425Z,18.9
2023-04-12T02:55:13.398Z,18.9
2023-04-12T03:15:13.506Z,18.9
2023-04-12T03:35:13.388Z,19.1
2023-04-12T03:55:13.324Z,19.3
2023-04-12T04:15:13.285Z,19.6
2023-04-12T04:35:13.261Z,19.7
2023-04-12T04:55:13.212Z,19.7
2023-04-12T05:15:13.225Z,19.8
2023-04-12T05:35:13.204Z,19.8
2023-04-12T05:55:13.174Z,19.9
2023-04-12T06:15:13.119Z,20.2
2023-04-12T06:35:13.121Z,20.3
2023-04-12T06:55:13.156Z,20.4
2023-04-12T07:15:13.027Z,20.5
2023-04-12T07:35:12.993Z,20.6
2023-04-12T07:55:13.025Z,20.7
2023-04-12T08:15:12.989Z,20.6
2023-04-12T08:35:12.944Z,20.7
2023-04-12T08:55:12.954Z,20.8
2023-04-12T09:15:12.973Z,20.8
2023-04-12T09:35:12.858Z,20.8
2023-04-12T09:55:12.897Z,20.9
2023-04-12T10:15:12.845Z,20.9
2023-04-12T10:35:12.776Z,20.9
2023-04-12T10:55:12.783Z,20.8
2023-04-12T11:15:12.743Z,20.9
2023-04-12T11:35:12.722Z,20.9
2023-04-12T11:55:12.699Z,21.0
2023-04-12T12:15:12.675Z,21.0
2023-04-12T12:35:12.700Z,21.1
2023-04-12T12:55:12.663Z,21.2
2023-04-12T13:15:12.694Z,21.2
2023-04-12T13:35:12.558Z,21.2
2023-04-12T13:55:12.587Z,21.1
2023-04-12T14:15:12.520Z,21.0
2023-04-12T14:35:12.642Z,20.9
2023-04-12T14:55:12.469Z,20.8
2023-04-12T15:15:12.454Z,20.7
2023-04-12T15:35:12.482Z,20.7
2023-04-12T15:55:12.458Z,20.8
2023-04-12T16:15:12.347Z,20.8
2023-04-12T16:35:12.353Z,20.7
2023-04-12T16:55:12.320Z,20.7
2023-04-12T17:15:12.264Z,20.7
2023-04-12T17:35:12.279Z,20.7
2023-04-12T17:55:12.236Z,20.6
2023-04-12T18:15:12.204Z,20.6
2023-04-12T18:35:12.176Z,20.5
2023-04-12T18:55:12.178Z,20.5
2023-04-12T19:15:12.132Z,20.4
2023-04-12T19:35:12.095Z,20.3
2023-04-12T19:55:12.075Z,20.2
2023-04-12T20:15:12.084Z,20.1
2023-04-12T20:35:12.042Z,20.0
2023-04-12T20:55:11.988Z,19.9
2023-04-12T21:15:12.006Z,19.8
2023-04-12T21:35:11.983Z,19.8
2023-04-12T21:55:11.932Z,19.7
2023-04-12T22:15:11.925Z,19.6
2023-04-12T22:35:11.880Z,19.6
2023-04-12T22:55:11.898Z,19.5
2023-04-12T23:15:11.797Z,19.5
2023-04-12T23:35:11.800Z,19.4
2023-04-12T23:55:11.750Z,19.4
